Afrodite — CURM3 — position and weather

sailwx.info

Track history (hours):
 
Tides and Currents Weather Stations Pressure Air Temp Water Temp Dewpoint Dewpoint Depression Visibility Wind Speed Wind Dir Waves Ship Positions

Afrodite

Last reported at 2017-Jun-28 15:57 UTC. Time now 2017-Jun-28 16:01 UTC.
Position N 39°19' W 009°27'.

Length 26 m.

Type: Fishing. MMSI: 263500170.

Date/timePositionNaut miles runAvg speedWind from/ knotsBaromVisibWave heightAir tempDewpointWater temp
2017-Jun-28 15:57N 39°19' W 009°27'0 0.3
2017-Jun-28 15:25N 39°19' W 009°27'0 0.1
2017-Jun-28 15:00N 39°19' W 009°27'0 0.7
2017-Jun-28 14:23N 39°19' W 009°27'0 0.2
2017-Jun-28 13:27N 39°20' W 009°27'4 6.4
2017-Jun-28 12:48N 39°21' W 009°22'0 0.0
2017-Jun-28 07:05N 39°21' W 009°22'4 7.4
2017-Jun-28 06:30N 39°17' W 009°23'5 7.5
2017-Jun-28 05:51N 39°12' W 009°23'0 0.7
2017-Jun-28 05:30N 39°12' W 009°23'0 0.4
2017-Jun-28 04:58N 39°12' W 009°23'3 5.2
2017-Jun-28 04:27N 39°11' W 009°26'2 3.9
2017-Jun-28 04:00N 39°10' W 009°27'6 8.5
2017-Jun-28 03:19N 39°15' W 009°28'5 0.8
2017-Jun-27 20:38N 39°20' W 009°26'3 3.9
2017-Jun-27 19:48N 39°21' W 009°22'0 0.0
2017-Jun-27 19:30N 39°21' W 009°22'0 0.0
2017-Jun-27 17:52N 39°21' W 009°22'0 0.0
2017-Jun-27 17:30N 39°21' W 009°22'3 4.6
2017-Jun-27 16:57N 39°19' W 009°23'3 6.4
2017-Jun-27 16:30N 39°16' W 009°24'0 0.8
2017-Jun-27 16:00N 39°16' W 009°24'0 0.2
2017-Jun-27 15:23N 39°16' W 009°24'0 1.1
2017-Jun-27 15:00N 39°16' W 009°24'4 4.2
2017-Jun-27 14:00N 39°20' W 009°27'0 0.2
2017-Jun-27 13:21N 39°20' W 009°27'4 6.3
2017-Jun-27 12:42N 39°21' W 009°22'0 0.0
2017-Jun-27 08:51N 39°21' W 009°22'1 3.1
2017-Jun-27 08:30N 39°20' W 009°23'1 2.1
2017-Jun-27 08:00N 39°21' W 009°22'  
2017-Jun-23 23:34N 39°16' W 009°25'2 8.6
2017-Jun-23 23:23N 39°14' W 009°25'4 8.2
2017-Jun-23 22:55N 39°11' W 009°27'0 0.5
2017-Jun-23 22:30N 39°11' W 009°27'1 3.0
2017-Jun-23 22:00N 39°10' W 009°27'4 7.6
2017-Jun-23 21:30N 39°06' W 009°29'1 1.4
2017-Jun-23 20:59N 39°07' W 009°29'0 0.8
2017-Jun-23 20:30N 39°07' W 009°29'0 0.6
2017-Jun-23 20:00N 39°07' W 009°29'1 1.7
2017-Jun-23 19:30N 39°08' W 009°28'5 5.9
2017-Jun-23 18:40N 39°12' W 009°25'2 9.6
2017-Jun-23 18:29N 39°14' W 009°25'8 9.2
2017-Jun-23 17:39N 39°21' W 009°22'0 1.0
2017-Jun-23 17:29N 39°21' W 009°22'0 0.0
2017-Jun-23 14:51N 39°21' W 009°22'0 0.0
2017-Jun-22 17:05N 39°21' W 009°22'0 0.0
2017-Jun-22 16:54N 39°21' W 009°22'0 0.0
2017-Jun-21 17:26N 39°21' W 009°22'0 0.0
2017-Jun-21 16:56N 39°21' W 009°22'0 0.0
2017-Jun-21 16:30N 39°21' W 009°22'0 0.0
2017-Jun-21 15:54N 39°21' W 009°22'0 0.0
2017-Jun-21 15:31N 39°21' W 009°22'0 0.0
2017-Jun-21 15:00N 39°21' W 009°22'0 0.0
2017-Jun-21 14:23N 39°21' W 009°22'0 0.0
2017-Jun-20 15:32N 39°21' W 009°22'0 0.0
2017-Jun-20 15:30N 39°21' W 009°22'  
Track history (hours):
 
Tides and Currents Weather Stations Pressure Air Temp Water Temp Dewpoint Dewpoint Depression Visibility Wind Speed Wind Dir Waves Ship Positions

Afrodite

Last reported at 2017-Jun-28 15:57 UTC. Time now 2017-Jun-28 16:01 UTC.
Position N 39°19' W 009°27'.

Length 26 m.

Type: Fishing. MMSI: 263500170.

Date/timePositionNaut miles runAvg speedWind from/ knotsBaromVisibWave heightAir tempDewpointWater temp
2017-Jun-28 15:57N 39°19' W 009°27'0 0.3
2017-Jun-28 15:25N 39°19' W 009°27'0 0.1
2017-Jun-28 15:00N 39°19' W 009°27'0 0.7
2017-Jun-28 14:23N 39°19' W 009°27'0 0.2
2017-Jun-28 13:27N 39°20' W 009°27'4 6.4
2017-Jun-28 12:48N 39°21' W 009°22'0 0.0
2017-Jun-28 07:05N 39°21' W 009°22'4 7.4
2017-Jun-28 06:30N 39°17' W 009°23'5 7.5
2017-Jun-28 05:51N 39°12' W 009°23'0 0.7
2017-Jun-28 05:30N 39°12' W 009°23'0 0.4
2017-Jun-28 04:58N 39°12' W 009°23'3 5.2
2017-Jun-28 04:27N 39°11' W 009°26'2 3.9
2017-Jun-28 04:00N 39°10' W 009°27'6 8.5
2017-Jun-28 03:19N 39°15' W 009°28'5 0.8
2017-Jun-27 20:38N 39°20' W 009°26'3 3.9
2017-Jun-27 19:48N 39°21' W 009°22'0 0.0
2017-Jun-27 19:30N 39°21' W 009°22'0 0.0
2017-Jun-27 17:52N 39°21' W 009°22'0 0.0
2017-Jun-27 17:30N 39°21' W 009°22'3 4.6
2017-Jun-27 16:57N 39°19' W 009°23'3 6.4
2017-Jun-27 16:30N 39°16' W 009°24'0 0.8
2017-Jun-27 16:00N 39°16' W 009°24'0 0.2
2017-Jun-27 15:23N 39°16' W 009°24'0 1.1
2017-Jun-27 15:00N 39°16' W 009°24'4 4.2
2017-Jun-27 14:00N 39°20' W 009°27'0 0.2
2017-Jun-27 13:21N 39°20' W 009°27'4 6.3
2017-Jun-27 12:42N 39°21' W 009°22'0 0.0
2017-Jun-27 08:51N 39°21' W 009°22'1 3.1
2017-Jun-27 08:30N 39°20' W 009°23'1 2.1
2017-Jun-27 08:00N 39°21' W 009°22'  
2017-Jun-23 23:34N 39°16' W 009°25'2 8.6
2017-Jun-23 23:23N 39°14' W 009°25'4 8.2
2017-Jun-23 22:55N 39°11' W 009°27'0 0.5
2017-Jun-23 22:30N 39°11' W 009°27'1 3.0
2017-Jun-23 22:00N 39°10' W 009°27'4 7.6
2017-Jun-23 21:30N 39°06' W 009°29'1 1.4
2017-Jun-23 20:59N 39°07' W 009°29'0 0.8
2017-Jun-23 20:30N 39°07' W 009°29'0 0.6
2017-Jun-23 20:00N 39°07' W 009°29'1 1.7
2017-Jun-23 19:30N 39°08' W 009°28'5 5.9
2017-Jun-23 18:40N 39°12' W 009°25'2 9.6
2017-Jun-23 18:29N 39°14' W 009°25'8 9.2
2017-Jun-23 17:39N 39°21' W 009°22'0 1.0
2017-Jun-23 17:29N 39°21' W 009°22'0 0.0
2017-Jun-23 14:51N 39°21' W 009°22'0 0.0
2017-Jun-22 17:05N 39°21' W 009°22'0 0.0
2017-Jun-22 16:54N 39°21' W 009°22'0 0.0
2017-Jun-21 17:26N 39°21' W 009°22'0 0.0
2017-Jun-21 16:56N 39°21' W 009°22'0 0.0
2017-Jun-21 16:30N 39°21' W 009°22'0 0.0
2017-Jun-21 15:54N 39°21' W 009°22'0 0.0
2017-Jun-21 15:31N 39°21' W 009°22'0 0.0
2017-Jun-21 15:00N 39°21' W 009°22'0 0.0
2017-Jun-21 14:23N 39°21' W 009°22'0 0.0
2017-Jun-20 15:32N 39°21' W 009°22'0 0.0
2017-Jun-20 15:30N 39°21' W 009°22'  

Dump ship's entire track history